Time;durP1;ratioP1;P1;durP2;ratioP2;P2;SDS_P1;SDS_P2;PMS_P1;PMS_P2;Temp;Humidity;BMP_temperature;BMP_pressure;BME280_temperature;BME280_humidity;BME280_pressure;Samples;Min_cycle;Max_cycle;Signal;HPM_P1;HPM_P2
2022/04/05 00:00:04;;;;;;;4.55;2.13;;;;;;;;;;5024649;28;20049;-65
2022/04/05 00:02:31;;;;;;;5.68;2.33;;;;;;;;;;5019115;28;20089;-60
2022/04/05 00:04:57;;;;;;;5.60;2.10;;;;;;;;;;5025925;28;20172;-67
2022/04/05 00:07:24;;;;;;;4.60;2.47;;;;;;;;;;5020094;28;20050;-58
2022/04/05 00:09:52;;;;;;;4.50;2.00;;;;;;;;;;5024140;28;20050;-60
2022/04/05 00:12:20;;;;;;;4.28;2.25;;;;;;;;;;5019490;28;20153;-59
2022/04/05 00:14:47;;;;;;;4.82;2.40;;;;;;;;;;5025251;28;20045;-64
2022/04/05 00:17:14;;;;;;;2.30;1.52;;;;;;;;;;5018414;28;20064;-63
2022/04/05 00:19:40;;;;;;;4.55;1.38;;;;;;;;;;5024968;28;20045;-60
2022/04/05 00:22:07;;;;;;;3.80;1.80;;;;;;;;;;5024996;28;20107;-65
2022/04/05 00:24:33;;;;;;;4.35;1.90;;;;;;;;;;5030918;28;20164;-59
2022/04/05 00:27:02;;;;;;;3.28;1.60;;;;;;;;;;5023453;28;20453;-57
2022/04/05 00:29:28;;;;;;;4.10;1.42;;;;;;;;;;5028856;28;20056;-58
2022/04/05 00:31:55;;;;;;;3.35;1.63;;;;;;;;;;5029118;28;20057;-61
2022/04/05 00:34:24;;;;;;;3.28;1.25;;;;;;;;;;5024606;28;20068;-58
2022/04/05 00:36:51;;;;;;;4.78;2.00;;;;;;;;;;5029167;28;20502;-61
2022/04/05 00:39:17;;;;;;;2.60;1.38;;;;;;;;;;5022822;28;20053;-59
2022/04/05 00:41:44;;;;;;;2.65;1.27;;;;;;;;;;5028591;28;20057;-61
2022/04/05 00:44:13;;;;;;;2.78;1.25;;;;;;;;;;5022099;28;20511;-60
2022/04/05 00:46:39;;;;;;;2.67;1.35;;;;;;;;;;5028608;28;20057;-58
2022/04/05 00:49:06;;;;;;;1.35;0.90;;;;;;;;;;5005936;28;20053;-61
2022/04/05 00:51:32;;;;;;;1.10;0.85;;;;;;;;;;5028530;28;20053;-60
2022/04/05 00:54:03;;;;;;;2.42;1.30;;;;;;;;;;5022162;28;20435;-58
2022/04/05 00:56:31;;;;;;;3.38;1.05;;;;;;;;;;5028837;28;20084;-59
2022/04/05 00:58:59;;;;;;;2.88;1.50;;;;;;;;;;5021815;28;20055;-61
2022/04/05 01:01:28;;;;;;;5.55;1.60;;;;;;;;;;5028301;28;20061;-60
2022/04/05 01:03:55;;;;;;;3.55;1.30;;;;;;;;;;5022562;28;20045;-62
2022/04/05 01:06:24;;;;;;;3.95;1.08;;;;;;;;;;5028468;28;20049;-57
2022/04/05 01:08:51;;;;;;;2.92;1.40;;;;;;;;;;5021155;28;20054;-59
2022/04/05 01:11:18;;;;;;;2.42;1.30;;;;;;;;;;5043678;28;20041;-59
2022/04/05 01:13:44;;;;;;;3.22;1.30;;;;;;;;;;5021828;28;20057;-58
2022/04/05 01:16:11;;;;;;;2.38;1.13;;;;;;;;;;5027369;28;20426;-62
2022/04/05 01:18:39;;;;;;;2.28;1.20;;;;;;;;;;5028913;28;20065;-60
2022/04/05 01:21:06;;;;;;;4.63;1.20;;;;;;;;;;5022055;28;20122;-59
2022/04/05 01:23:33;;;;;;;2.08;1.10;;;;;;;;;;5028116;28;20081;-60
2022/04/05 01:26:01;;;;;;;1.30;0.85;;;;;;;;;;5022743;28;20060;-59
2022/04/05 01:28:27;;;;;;;2.13;1.10;;;;;;;;;;5026177;28;20456;-59
2022/04/05 01:30:54;;;;;;;1.55;1.00;;;;;;;;;;5021322;28;20041;-61
2022/04/05 01:33:21;;;;;;;3.08;1.10;;;;;;;;;;5045062;28;20427;-59
2022/04/05 01:35:47;;;;;;;1.98;0.90;;;;;;;;;;5022342;28;20046;-58
2022/04/05 01:38:16;;;;;;;1.98;1.20;;;;;;;;;;5028600;28;20060;-61
2022/04/05 01:40:43;;;;;;;2.90;1.35;;;;;;;;;;5021695;28;20052;-58
2022/04/05 01:43:11;;;;;;;1.90;0.95;;;;;;;;;;5028365;28;20101;-59
2022/04/05 01:45:38;;;;;;;1.90;1.00;;;;;;;;;;5022264;28;20045;-59
2022/04/05 01:48:05;;;;;;;2.92;1.10;;;;;;;;;;5028242;28;20049;-61
2022/04/05 01:50:32;;;;;;;1.17;0.80;;;;;;;;;;5022451;28;20057;-59
2022/04/05 01:52:59;;;;;;;2.22;1.05;;;;;;;;;;5028799;28;20061;-61
2022/04/05 01:55:25;;;;;;;2.63;1.10;;;;;;;;;;5023195;28;20551;-62
2022/04/05 01:57:52;;;;;;;3.47;0.82;;;;;;;;;;5028725;28;20054;-60
2022/04/05 02:00:20;;;;;;;1.15;0.73;;;;;;;;;;5027435;28;20061;-60
2022/04/05 02:02:47;;;;;;;2.00;0.80;;;;;;;;;;5004262;28;20080;-57
2022/04/05 02:05:13;;;;;;;3.42;0.77;;;;;;;;;;5028338;28;20053;-59
2022/04/05 02:07:40;;;;;;;1.10;0.90;;;;;;;;;;5022141;28;20076;-58
2022/04/05 02:10:07;;;;;;;1.30;0.80;;;;;;;;;;5028368;28;20061;-60
2022/04/05 02:12:33;;;;;;;1.75;0.75;;;;;;;;;;5021989;28;20115;-58
2022/04/05 02:15:00;;;;;;;1.75;0.90;;;;;;;;;;5027939;28;20056;-57
2022/04/05 02:17:28;;;;;;;1.85;0.80;;;;;;;;;;5021332;28;20060;-59
2022/04/05 02:19:56;;;;;;;1.40;0.73;;;;;;;;;;5028310;28;20140;-57
2022/04/05 02:22:23;;;;;;;0.80;0.73;;;;;;;;;;5013983;28;20062;-58
2022/04/05 02:24:51;;;;;;;1.25;0.85;;;;;;;;;;5008174;28;20065;-58
2022/04/05 02:27:17;;;;;;;1.30;0.80;;;;;;;;;;5003835;28;20065;-57
2022/04/05 02:29:44;;;;;;;1.23;0.80;;;;;;;;;;5008734;28;20054;-60
2022/04/05 02:32:10;;;;;;;2.35;0.90;;;;;;;;;;5003977;28;20057;-58
2022/04/05 02:34:38;;;;;;;2.92;0.82;;;;;;;;;;5007763;28;20085;-62
2022/04/05 02:37:05;;;;;;;2.45;1.05;;;;;;;;;;5005623;28;20053;-62
2022/04/05 02:39:31;;;;;;;2.15;1.00;;;;;;;;;;5028783;28;20053;-58
2022/04/05 02:41:58;;;;;;;1.85;0.90;;;;;;;;;;5028682;28;20045;-62
2022/04/05 02:44:24;;;;;;;3.22;1.00;;;;;;;;;;5048320;28;20052;-59
2022/04/05 02:46:51;;;;;;;2.05;0.80;;;;;;;;;;5047851;28;20057;-62
2022/04/05 02:49:18;;;;;;;1.95;0.90;;;;;;;;;;5032525;28;20061;-60
2022/04/05 02:51:46;;;;;;;1.95;0.80;;;;;;;;;;5028333;28;20055;-60
2022/04/05 02:54:13;;;;;;;0.88;0.80;;;;;;;;;;5005723;28;20069;-64
2022/04/05 02:56:39;;;;;;;1.83;0.93;;;;;;;;;;5007308;28;20077;-62
2022/04/05 02:59:06;;;;;;;2.20;0.77;;;;;;;;;;5001295;28;20061;-61
2022/04/05 03:01:33;;;;;;;2.47;0.82;;;;;;;;;;5006578;28;20058;-63
2022/04/05 03:03:59;;;;;;;0.80;0.70;;;;;;;;;;4997689;28;20065;-59
2022/04/05 03:06:26;;;;;;;1.17;0.80;;;;;;;;;;5000370;28;20064;-57
2022/04/05 03:08:58;;;;;;;2.13;0.90;;;;;;;;;;4991561;28;20064;-58
2022/04/05 03:11:24;;;;;;;2.08;1.15;;;;;;;;;;5007611;28;20061;-62
2022/04/05 03:13:51;;;;;;;0.90;0.77;;;;;;;;;;5001141;28;20145;-58
2022/04/05 03:16:17;;;;;;;1.40;1.00;;;;;;;;;;5048869;28;20056;-57
2022/04/05 03:18:46;;;;;;;1.70;1.08;;;;;;;;;;5037979;28;20053;-58
2022/04/05 03:21:12;;;;;;;2.60;1.38;;;;;;;;;;5028247;28;20049;-60
2022/04/05 03:23:39;;;;;;;3.92;1.10;;;;;;;;;;5027666;28;20104;-61
2022/04/05 03:26:07;;;;;;;2.63;1.27;;;;;;;;;;5025343;28;20046;-63
2022/04/05 03:28:34;;;;;;;1.15;0.70;;;;;;;;;;5027834;28;20049;-59
2022/04/05 03:31:00;;;;;;;2.90;1.05;;;;;;;;;;5019752;28;20053;-57
2022/04/05 03:33:27;;;;;;;2.72;1.10;;;;;;;;;;5026987;28;20056;-57
2022/04/05 03:35:55;;;;;;;2.03;0.90;;;;;;;;;;5021408;28;20080;-58
2022/04/05 03:38:23;;;;;;;1.10;0.80;;;;;;;;;;5027274;28;20053;-62
2022/04/05 03:40:51;;;;;;;5.37;1.30;;;;;;;;;;5020409;28;20536;-58
2022/04/05 03:43:19;;;;;;;1.83;1.00;;;;;;;;;;5026851;28;20122;-57
2022/04/05 03:45:47;;;;;;;3.30;1.10;;;;;;;;;;5020572;28;20095;-58
2022/04/05 03:48:15;;;;;;;1.92;0.93;;;;;;;;;;5025950;28;20053;-58
2022/04/05 03:50:41;;;;;;;2.33;1.00;;;;;;;;;;5012890;28;20534;-58
2022/04/05 03:53:08;;;;;;;2.78;1.00;;;;;;;;;;5006391;28;20206;-57
2022/04/05 03:55:35;;;;;;;2.17;1.13;;;;;;;;;;5010848;28;20050;-57
2022/04/05 03:58:02;;;;;;;2.97;1.10;;;;;;;;;;5030750;28;20083;-61
2022/04/05 04:00:30;;;;;;;1.98;1.20;;;;;;;;;;5022281;28;20062;-59
2022/04/05 04:02:57;;;;;;;3.93;1.30;;;;;;;;;;5010560;28;20078;-58
2022/04/05 04:05:25;;;;;;;1.40;0.93;;;;;;;;;;5007389;28;20195;-59
2022/04/05 04:07:55;;;;;;;4.32;1.27;;;;;;;;;;5030151;28;20060;-59
2022/04/05 04:10:21;;;;;;;1.77;0.82;;;;;;;;;;5030340;28;20099;-57
2022/04/05 04:12:48;;;;;;;3.70;1.35;;;;;;;;;;5022440;28;20042;-57
2022/04/05 04:15:15;;;;;;;2.85;1.40;;;;;;;;;;5030268;28;20045;-57
2022/04/05 04:17:43;;;;;;;3.30;1.33;;;;;;;;;;5024368;28;20053;-58
2022/04/05 04:20:10;;;;;;;1.83;1.02;;;;;;;;;;5031253;28;20045;-57
2022/04/05 04:22:37;;;;;;;6.75;1.67;;;;;;;;;;5025602;28;20045;-57
2022/04/05 04:25:03;;;;;;;3.60;1.60;;;;;;;;;;5029851;28;20092;-57
2022/04/05 04:27:31;;;;;;;2.67;1.10;;;;;;;;;;5024877;28;20050;-57
2022/04/05 04:29:58;;;;;;;2.60;1.33;;;;;;;;;;5030426;28;20064;-58
2022/04/05 04:32:24;;;;;;;5.75;2.08;;;;;;;;;;5025742;28;20041;-59
2022/04/05 04:34:52;;;;;;;6.97;2.28;;;;;;;;;;5023396;28;20076;-59
2022/04/05 04:37:19;;;;;;;5.03;1.77;;;;;;;;;;5024982;28;20057;-59
2022/04/05 04:39:45;;;;;;;2.22;1.30;;;;;;;;;;5030241;28;20137;-58
2022/04/05 04:42:12;;;;;;;4.90;2.22;;;;;;;;;;5025068;28;20057;-61
2022/04/05 04:44:39;;;;;;;3.83;2.00;;;;;;;;;;5030413;28;20057;-59
2022/04/05 04:47:06;;;;;;;4.15;1.77;;;;;;;;;;5024586;28;20053;-58
2022/04/05 04:49:33;;;;;;;3.60;1.63;;;;;;;;;;5029128;28;20053;-58
2022/04/05 04:52:01;;;;;;;7.03;2.67;;;;;;;;;;5034833;28;20447;-60
2022/04/05 04:54:27;;;;;;;7.30;2.73;;;;;;;;;;5045379;28;20053;-60
2022/04/05 04:56:54;;;;;;;8.98;2.97;;;;;;;;;;5051766;28;20378;-63
2022/04/05 04:59:20;;;;;;;9.75;3.30;;;;;;;;;;5032104;28;20063;-60
2022/04/05 05:01:47;;;;;;;4.07;1.70;;;;;;;;;;5049095;28;20072;-59
2022/04/05 05:04:13;;;;;;;5.32;2.20;;;;;;;;;;5027976;28;20049;-60
2022/04/05 05:06:40;;;;;;;11.85;5.32;;;;;;;;;;5029874;28;20053;-60
2022/04/05 05:09:08;;;;;;;9.18;3.92;;;;;;;;;;5026229;28;20053;-62
2022/04/05 05:11:35;;;;;;;4.15;2.10;;;;;;;;;;5027415;28;20061;-58
2022/04/05 05:14:02;;;;;;;5.18;2.22;;;;;;;;;;5021519;28;20367;-56
2022/04/05 05:16:28;;;;;;;8.50;3.83;;;;;;;;;;5029523;28;20045;-60
2022/04/05 05:18:55;;;;;;;7.75;3.38;;;;;;;;;;5022612;28;20061;-60
2022/04/05 05:21:23;;;;;;;9.43;3.80;;;;;;;;;;5027965;28;20109;-60
2022/04/05 05:23:49;;;;;;;8.50;3.70;;;;;;;;;;5020841;28;20056;-64
2022/04/05 05:26:17;;;;;;;9.02;3.80;;;;;;;;;;5027915;28;20054;-61
2022/04/05 05:28:45;;;;;;;8.93;4.18;;;;;;;;;;5021961;28;20049;-63
2022/04/05 05:31:12;;;;;;;12.95;5.28;;;;;;;;;;5026323;28;20049;-60
2022/04/05 05:33:38;;;;;;;12.57;5.35;;;;;;;;;;5027824;28;20053;-59
2022/04/05 05:36:05;;;;;;;4.57;2.30;;;;;;;;;;5023599;28;20135;-61
2022/04/05 05:38:32;;;;;;;9.45;4.20;;;;;;;;;;5028255;28;20049;-62
2022/04/05 05:40:58;;;;;;;7.97;4.10;;;;;;;;;;5021560;28;20049;-60
2022/04/05 05:43:26;;;;;;;7.00;3.47;;;;;;;;;;5042525;28;20054;-60
2022/04/05 05:45:53;;;;;;;8.53;4.13;;;;;;;;;;5021700;28;20435;-60
2022/04/05 05:48:19;;;;;;;9.07;3.17;;;;;;;;;;5026724;28;20320;-64
2022/04/05 05:50:49;;;;;;;5.93;3.28;;;;;;;;;;5022854;28;20049;-64
2022/04/05 05:53:16;;;;;;;11.10;4.55;;;;;;;;;;5028739;28;20054;-67
2022/04/05 05:55:44;;;;;;;7.65;3.55;;;;;;;;;;5022332;28;20057;-61
2022/04/05 05:58:11;;;;;;;12.38;5.38;;;;;;;;;;5027881;28;20049;-60
2022/04/05 06:00:40;;;;;;;10.30;4.60;;;;;;;;;;5021941;28;20510;-61
2022/04/05 06:03:06;;;;;;;8.13;3.75;;;;;;;;;;5028750;28;20056;-58
2022/04/05 06:05:33;;;;;;;12.35;5.07;;;;;;;;;;5023553;28;20053;-61
2022/04/05 06:08:00;;;;;;;11.18;5.50;;;;;;;;;;5028604;28;20058;-63
2022/04/05 06:10:29;;;;;;;11.32;4.95;;;;;;;;;;5023740;28;20057;-60
2022/04/05 06:12:57;;;;;;;10.05;5.03;;;;;;;;;;5028156;28;20076;-63
2022/04/05 06:15:25;;;;;;;8.48;4.00;;;;;;;;;;5022082;28;20081;-64
2022/04/05 06:17:53;;;;;;;8.95;3.95;;;;;;;;;;5029239;28;20058;-60
2022/04/05 06:20:20;;;;;;;11.65;5.03;;;;;;;;;;5029619;28;20076;-62
2022/04/05 06:22:47;;;;;;;12.25;5.60;;;;;;;;;;5022854;28;20148;-60
2022/04/05 06:25:15;;;;;;;9.70;3.95;;;;;;;;;;5031049;28;20479;-60
2022/04/05 06:27:42;;;;;;;12.40;4.82;;;;;;;;;;5007184;28;20137;-58
2022/04/05 06:30:10;;;;;;;11.00;4.85;;;;;;;;;;5008503;28;20149;-60
2022/04/05 06:32:36;;;;;;;11.68;4.88;;;;;;;;;;5016252;28;20107;-56
2022/04/05 06:35:06;;;;;;;12.82;5.13;;;;;;;;;;5027829;28;20168;-58
2022/04/05 06:37:35;;;;;;;11.68;5.25;;;;;;;;;;5010600;28;20046;-61
2022/04/05 06:40:02;;;;;;;15.23;5.82;;;;;;;;;;5007073;28;20049;-57
2022/04/05 06:42:29;;;;;;;12.43;5.03;;;;;;;;;;5011246;28;20148;-59
2022/04/05 06:44:56;;;;;;;13.52;5.50;;;;;;;;;;5028070;28;20057;-60
2022/04/05 06:47:23;;;;;;;10.88;5.20;;;;;;;;;;5021640;28;20072;-57
2022/04/05 06:49:49;;;;;;;10.90;4.47;;;;;;;;;;5027372;28;20106;-57
2022/04/05 06:52:17;;;;;;;15.07;5.22;;;;;;;;;;5021471;28;20045;-57
2022/04/05 06:54:44;;;;;;;13.27;5.05;;;;;;;;;;5061757;28;20056;-58
2022/04/05 06:57:11;;;;;;;10.35;4.20;;;;;;;;;;5040740;28;20076;-59
2022/04/05 06:59:38;;;;;;;9.45;4.07;;;;;;;;;;5047209;28;20052;-58
2022/04/05 07:02:04;;;;;;;9.88;4.18;;;;;;;;;;5046212;28;20045;-57
2022/04/05 07:04:31;;;;;;;10.90;4.70;;;;;;;;;;5018145;28;20083;-57
2022/04/05 07:06:58;;;;;;;10.93;5.00;;;;;;;;;;5007702;28;20104;-61
2022/04/05 07:09:26;;;;;;;10.57;4.22;;;;;;;;;;5000007;28;20045;-58
2022/04/05 07:11:53;;;;;;;8.05;3.83;;;;;;;;;;5006691;28;20068;-57
2022/04/05 07:14:19;;;;;;;11.65;3.90;;;;;;;;;;5003355;28;20046;-54
2022/04/05 07:16:48;;;;;;;13.38;4.38;;;;;;;;;;5027219;28;20053;-58
2022/04/05 07:19:14;;;;;;;7.88;3.80;;;;;;;;;;5010255;28;20072;-58
2022/04/05 07:21:41;;;;;;;8.80;3.83;;;;;;;;;;5008091;28;20119;-55
2022/04/05 07:24:07;;;;;;;11.15;3.65;;;;;;;;;;5011461;28;20052;-57
2022/04/05 07:26:35;;;;;;;11.55;3.50;;;;;;;;;;5027169;28;20088;-59
2022/04/05 07:29:02;;;;;;;8.83;4.17;;;;;;;;;;5020540;28;20057;-57
2022/04/05 07:31:29;;;;;;;11.32;3.63;;;;;;;;;;5026805;28;20050;-57
2022/04/05 07:33:55;;;;;;;13.82;4.07;;;;;;;;;;5021021;28;20073;-60
2022/04/05 07:36:22;;;;;;;9.52;3.55;;;;;;;;;;5027375;28;20053;-59
2022/04/05 07:38:49;;;;;;;8.30;3.33;;;;;;;;;;5020774;28;20050;-61
2022/04/05 07:41:15;;;;;;;10.68;3.70;;;;;;;;;;5027374;28;20115;-60
2022/04/05 07:43:44;;;;;;;11.73;3.60;;;;;;;;;;5026881;28;20525;-59
2022/04/05 07:46:11;;;;;;;10.75;3.90;;;;;;;;;;5006783;28;20058;-58
2022/04/05 07:48:39;;;;;;;8.35;3.13;;;;;;;;;;5009541;28;20049;-59
2022/04/05 07:51:05;;;;;;;7.40;3.25;;;;;;;;;;5020802;28;20057;-64
2022/04/05 07:53:32;;;;;;;10.93;3.58;;;;;;;;;;5027029;28;20061;-60
2022/04/05 07:55:59;;;;;;;7.57;3.10;;;;;;;;;;5006852;28;20046;-58
2022/04/05 07:58:26;;;;;;;7.70;3.13;;;;;;;;;;5007444;28;20092;-60
2022/04/05 08:00:54;;;;;;;10.63;3.05;;;;;;;;;;5013918;28;20054;-58
2022/04/05 08:03:22;;;;;;;8.90;3.30;;;;;;;;;;5041908;28;20041;-58
2022/04/05 08:05:48;;;;;;;9.52;3.15;;;;;;;;;;5009440;28;20308;-60
2022/04/05 08:08:15;;;;;;;13.68;3.30;;;;;;;;;;5019382;28;20049;-57
2022/04/05 08:10:42;;;;;;;8.98;3.03;;;;;;;;;;5026037;28;20071;-61
2022/04/05 08:13:08;;;;;;;10.95;3.53;;;;;;;;;;5025008;28;20066;-59
2022/04/05 08:15:35;;;;;;;6.82;3.10;;;;;;;;;;5018289;28;20053;-61
2022/04/05 08:18:05;;;;;;;8.88;3.33;;;;;;;;;;5024341;28;20104;-61
2022/04/05 08:20:33;;;;;;;7.38;3.08;;;;;;;;;;5021156;28;20057;-61
2022/04/05 08:23:00;;;;;;;11.73;3.10;;;;;;;;;;5027806;28;20114;-62
2022/04/05 08:25:28;;;;;;;9.70;3.22;;;;;;;;;;5021996;28;20062;-60
2022/04/05 08:27:55;;;;;;;10.52;3.33;;;;;;;;;;5007336;28;20104;-57
2022/04/05 08:30:22;;;;;;;15.95;6.63;;;;;;;;;;5023710;28;20056;-59
2022/04/05 08:32:49;;;;;;;14.73;4.53;;;;;;;;;;5036041;28;20057;-58
2022/04/05 08:35:18;;;;;;;8.32;2.90;;;;;;;;;;5027001;28;20069;-57
2022/04/05 08:37:45;;;;;;;;;;;;;;;;;;5022317;28;20057;-57
2022/04/05 08:40:12;;;;;;;6.10;2.88;;;;;;;;;;5027029;28;19925;-60
2022/04/05 08:42:40;;;;;;;6.55;2.72;;;;;;;;;;5023141;28;20508;-59
2022/04/05 08:45:10;;;;;;;7.57;2.93;;;;;;;;;;5030438;28;20141;-60
2022/04/05 08:47:39;;;;;;;9.45;2.90;;;;;;;;;;5024375;28;20053;-57
2022/04/05 08:50:06;;;;;;;9.32;2.65;;;;;;;;;;5030709;28;20077;-58
2022/04/05 08:52:35;;;;;;;8.98;2.92;;;;;;;;;;5023777;28;20078;-58
2022/04/05 08:55:01;;;;;;;6.78;2.67;;;;;;;;;;5029867;28;20553;-57
2022/04/05 08:57:29;;;;;;;9.38;3.10;;;;;;;;;;5022638;28;20050;-57
2022/04/05 08:59:56;;;;;;;8.13;2.28;;;;;;;;;;5030543;28;20103;-59
2022/04/05 09:02:25;;;;;;;7.70;2.42;;;;;;;;;;5023905;28;20053;-56
2022/04/05 09:04:53;;;;;;;8.80;2.90;;;;;;;;;;5029829;28;20045;-58
2022/04/05 09:07:20;;;;;;;7.20;3.15;;;;;;;;;;5024288;28;20046;-59
2022/04/05 09:10:06;;;;;;;9.45;3.25;;;;;;;;;;5030180;28;20053;-58
2022/04/05 09:12:39;;;;;;;13.48;4.30;;;;;;;;;;5022928;28;20053;-57
2022/04/05 09:15:08;;;;;;;5.55;2.70;;;;;;;;;;5029626;28;20049;-58
2022/04/05 09:17:40;;;;;;;6.70;3.20;;;;;;;;;;5023911;28;20053;-59
2022/04/05 09:20:06;;;;;;;8.85;2.88;;;;;;;;;;5029454;28;20119;-61
2022/04/05 09:22:34;;;;;;;11.38;2.75;;;;;;;;;;5029563;28;20077;-60
2022/04/05 09:25:04;;;;;;;14.30;2.70;;;;;;;;;;5027407;28;20109;-61
2022/04/05 09:27:43;;;;;;;7.10;2.75;;;;;;;;;;5029538;28;20041;-57
2022/04/05 09:30:12;;;;;;;9.90;2.22;;;;;;;;;;5040587;28;20057;-58
2022/04/05 09:32:40;;;;;;;6.80;2.33;;;;;;;;;;5029352;28;20056;-59
2022/04/05 09:35:07;;;;;;;5.53;2.60;;;;;;;;;;5023572;28;20053;-56
2022/04/05 09:37:38;;;;;;;8.27;2.60;;;;;;;;;;5029388;28;20054;-60
2022/04/05 09:40:23;;;;;;;6.82;2.83;;;;;;;;;;5024065;28;20103;-61
2022/04/05 09:43:00;;;;;;;11.32;2.50;;;;;;;;;;5029487;28;20117;-57
2022/04/05 09:45:46;;;;;;;7.13;3.13;;;;;;;;;;5023017;28;20057;-58
2022/04/05 09:48:15;;;;;;;6.07;2.72;;;;;;;;;;5029046;28;20060;-59
2022/04/05 09:50:58;;;;;;;7.25;2.58;;;;;;;;;;5022823;28;20053;-58
2022/04/05 09:53:25;;;;;;;7.70;2.20;;;;;;;;;;5028349;28;20056;-59
2022/04/05 09:56:03;;;;;;;7.38;2.85;;;;;;;;;;5022817;28;20107;-60
2022/04/05 09:58:36;;;;;;;4.75;2.55;;;;;;;;;;5027525;28;20069;-60
2022/04/05 10:01:06;;;;;;;7.15;3.17;;;;;;;;;;5023794;28;20056;-63
2022/04/05 10:03:33;;;;;;;7.47;2.80;;;;;;;;;;5028175;28;20054;-61
2022/04/05 10:05:59;;;;;;;8.98;3.35;;;;;;;;;;5016349;28;20061;-60
2022/04/05 10:08:27;;;;;;;6.30;2.58;;;;;;;;;;5029201;28;20057;-60
2022/04/05 10:10:54;;;;;;;8.63;3.40;;;;;;;;;;5023427;28;20049;-61
2022/04/05 10:13:23;;;;;;;9.43;3.55;;;;;;;;;;5028554;28;20057;-61
2022/04/05 10:15:51;;;;;;;13.15;3.33;;;;;;;;;;5022629;28;20054;-63
2022/04/05 10:18:19;;;;;;;7.63;4.03;;;;;;;;;;5029278;28;20049;-61
2022/04/05 10:20:47;;;;;;;8.57;2.83;;;;;;;;;;5017235;28;20064;-62
2022/04/05 10:23:14;;;;;;;;;;;;;;;;;;5009510;28;20041;-60
2022/04/05 10:25:41;;;;;;;8.80;3.30;;;;;;;;;;5008731;28;19921;-61
2022/04/05 10:28:09;;;;;;;7.18;3.42;;;;;;;;;;5028154;28;20063;-61
2022/04/05 10:30:41;;;;;;;8.97;3.90;;;;;;;;;;5016585;28;20076;-60
2022/04/05 10:33:10;;;;;;;8.98;3.30;;;;;;;;;;5028025;28;20060;-62
2022/04/05 10:35:42;;;;;;;7.82;3.05;;;;;;;;;;5022127;28;20061;-60
2022/04/05 10:38:12;;;;;;;6.50;2.78;;;;;;;;;;5028931;28;20057;-62
2022/04/05 10:40:39;;;;;;;7.78;3.05;;;;;;;;;;5024387;28;20065;-63
2022/04/05 10:43:15;;;;;;;12.43;3.55;;;;;;;;;;5026920;28;20140;-62
2022/04/05 10:45:44;;;;;;;6.80;2.90;;;;;;;;;;5028204;28;20111;-60
2022/04/05 10:48:14;;;;;;;8.90;3.35;;;;;;;;;;5022248;28;20069;-62
2022/04/05 10:50:41;;;;;;;9.40;3.30;;;;;;;;;;5027725;28;20132;-61
2022/04/05 10:53:13;;;;;;;7.20;2.92;;;;;;;;;;5022973;28;20053;-65
2022/04/05 10:55:58;;;;;;;10.45;3.47;;;;;;;;;;5027998;28;20139;-63
2022/04/05 10:58:25;;;;;;;10.25;3.05;;;;;;;;;;5022286;28;20046;-62
2022/04/05 11:01:12;;;;;;;9.25;3.58;;;;;;;;;;5027794;28;20076;-62
2022/04/05 11:03:39;;;;;;;7.40;2.83;;;;;;;;;;5019776;28;20115;-66
2022/04/05 11:06:05;;;;;;;10.13;3.03;;;;;;;;;;5026240;28;20072;-60
2022/04/05 11:08:32;;;;;;;9.23;2.67;;;;;;;;;;5022063;28;20123;-61
2022/04/05 11:11:01;;;;;;;8.90;3.13;;;;;;;;;;5027824;28;20053;-60
2022/04/05 11:13:46;;;;;;;7.35;3.13;;;;;;;;;;5020463;28;20049;-61
2022/04/05 11:16:14;;;;;;;7.85;3.05;;;;;;;;;;5027597;28;20073;-64
2022/04/05 11:18:43;;;;;;;9.50;2.97;;;;;;;;;;5021823;28;20140;-61
2022/04/05 11:21:10;;;;;;;6.68;2.83;;;;;;;;;;5018795;28;20057;-63
2022/04/05 11:23:46;;;;;;;6.28;2.83;;;;;;;;;;5021928;28;20061;-64
2022/04/05 11:26:23;;;;;;;6.10;2.55;;;;;;;;;;5051137;28;20057;-62
2022/04/05 11:28:51;;;;;;;7.75;2.70;;;;;;;;;;5030426;28;20053;-62
2022/04/05 11:31:28;;;;;;;8.75;2.90;;;;;;;;;;5027531;28;20057;-65
2022/04/05 11:33:55;;;;;;;9.15;2.55;;;;;;;;;;5021060;28;20131;-62
2022/04/05 11:36:25;;;;;;;14.90;5.88;;;;;;;;;;5038213;28;20052;-59
2022/04/05 11:38:53;;;;;;;8.73;4.10;;;;;;;;;;5033270;28;20130;-58
2022/04/05 11:41:21;;;;;;;8.82;3.15;;;;;;;;;;5027568;28;20073;-60
2022/04/05 11:43:50;;;;;;;8.80;3.15;;;;;;;;;;5026703;28;20114;-63
2022/04/05 11:46:21;;;;;;;6.53;3.00;;;;;;;;;;5047225;28;20051;-58
2022/04/05 11:48:51;;;;;;;6.55;2.95;;;;;;;;;;5031409;28;20049;-57
2022/04/05 11:51:18;;;;;;;9.07;3.10;;;;;;;;;;5027302;28;20059;-58
2022/04/05 11:53:46;;;;;;;8.25;3.03;;;;;;;;;;5020983;28;21347;-60
2022/04/05 11:56:14;;;;;;;10.02;3.08;;;;;;;;;;5027173;28;20053;-59
2022/04/05 11:58:42;;;;;;;9.52;3.33;;;;;;;;;;5022995;28;20053;-62
2022/04/05 12:01:09;;;;;;;7.05;2.90;;;;;;;;;;5018203;28;20377;-59
2022/04/05 12:03:47;;;;;;;7.53;2.95;;;;;;;;;;5026780;28;20048;-62
2022/04/05 12:06:17;;;;;;;10.10;3.23;;;;;;;;;;5038889;28;20135;-59
2022/04/05 12:08:44;;;;;;;6.80;2.63;;;;;;;;;;5027105;28;20307;-63
2022/04/05 12:11:11;;;;;;;6.15;2.70;;;;;;;;;;5023101;28;20096;-57
2022/04/05 12:13:37;;;;;;;8.32;3.25;;;;;;;;;;5026492;28;20115;-63
2022/04/05 12:16:06;;;;;;;8.23;2.55;;;;;;;;;;5036183;28;20087;-61
2022/04/05 12:18:33;;;;;;;7.57;3.20;;;;;;;;;;5029605;28;20066;-59
2022/04/05 12:21:00;;;;;;;9.82;3.35;;;;;;;;;;5025180;28;20049;-58
2022/04/05 12:23:32;;;;;;;8.23;2.85;;;;;;;;;;5029228;28;20518;-58
2022/04/05 12:26:02;;;;;;;5.95;2.65;;;;;;;;;;5024794;28;20049;-61
2022/04/05 12:28:30;;;;;;;6.95;2.90;;;;;;;;;;5030546;28;20042;-58
2022/04/05 12:31:03;;;;;;;9.00;2.67;;;;;;;;;;5022830;28;20049;-62
2022/04/05 12:33:30;;;;;;;8.27;3.08;;;;;;;;;;5030811;28;20132;-60
2022/04/05 12:35:56;;;;;;;8.75;3.63;;;;;;;;;;5024805;28;20079;-60
2022/04/05 12:38:23;;;;;;;7.07;2.90;;;;;;;;;;5030327;28;20073;-60
2022/04/05 12:40:51;;;;;;;8.07;3.42;;;;;;;;;;5029378;28;20079;-60
2022/04/05 12:43:19;;;;;;;11.82;4.18;;;;;;;;;;5049447;28;20341;-58
2022/04/05 12:45:46;;;;;;;8.98;4.40;;;;;;;;;;5043769;28;20045;-60
2022/04/05 12:48:14;;;;;;;9.88;3.97;;;;;;;;;;5050108;28;20126;-61
2022/04/05 12:50:42;;;;;;;10.57;4.53;;;;;;;;;;5046546;28;20048;-60
2022/04/05 12:53:08;;;;;;;11.18;3.97;;;;;;;;;;5048632;28;20059;-59
2022/04/05 12:55:35;;;;;;;9.85;4.70;;;;;;;;;;5050194;28;20123;-61
2022/04/05 12:58:03;;;;;;;9.82;3.47;;;;;;;;;;5026872;28;20045;-60
2022/04/05 13:00:32;;;;;;;11.18;3.88;;;;;;;;;;5030179;28;20049;-58
2022/04/05 13:02:59;;;;;;;;;;;;;;;;;;5024727;28;20053;-61
2022/04/05 13:08:28;;;;;;;7.60;3.85;;;;;;;;;;4982820;28;20050;-61
2022/04/05 13:10:55;;;;;;;15.10;3.97;;;;;;;;;;4998574;28;20058;-58
2022/04/05 13:13:24;;;;;;;9.32;3.92;;;;;;;;;;5034851;28;20053;-59
2022/04/05 13:15:52;;;;;;;8.40;3.33;;;;;;;;;;5050192;28;20049;-59
2022/04/05 13:18:19;;;;;;;7.82;3.90;;;;;;;;;;5043664;28;20068;-57
2022/04/05 13:20:59;;;;;;;11.85;4.13;;;;;;;;;;5049542;28;20057;-63
2022/04/05 13:23:27;;;;;;;7.20;3.40;;;;;;;;;;5030803;28;20079;-60
2022/04/05 13:25:54;;;;;;;10.50;4.18;;;;;;;;;;5029493;28;20071;-61
2022/04/05 13:28:20;;;;;;;7.15;3.85;;;;;;;;;;5032848;28;20063;-57
2022/04/05 13:30:48;;;;;;;6.90;3.78;;;;;;;;;;5049949;28;20052;-61
2022/04/05 13:33:15;;;;;;;9.45;3.58;;;;;;;;;;5035507;28;20053;-63
2022/04/05 13:35:42;;;;;;;6.53;3.50;;;;;;;;;;5029488;28;20099;-59
2022/04/05 13:38:10;;;;;;;7.20;4.00;;;;;;;;;;5028683;28;20041;-59
2022/04/05 13:40:37;;;;;;;7.05;3.17;;;;;;;;;;5049711;28;20517;-59
2022/04/05 13:43:04;;;;;;;8.07;4.18;;;;;;;;;;5040137;28;20061;-64
2022/04/05 13:45:30;;;;;;;9.45;4.10;;;;;;;;;;5028559;28;20054;-62
2022/04/05 13:47:59;;;;;;;6.60;3.70;;;;;;;;;;5024797;28;20143;-60
2022/04/05 13:50:26;;;;;;;5.85;3.15;;;;;;;;;;4987959;28;20061;-59
2022/04/05 13:52:53;;;;;;;6.85;3.65;;;;;;;;;;4989642;28;20054;-59
2022/04/05 13:55:19;;;;;;;7.43;3.17;;;;;;;;;;5002459;28;20065;-58
2022/04/05 13:57:47;;;;;;;6.05;2.97;;;;;;;;;;5030191;28;20052;-60
2022/04/05 14:00:14;;;;;;;8.33;3.33;;;;;;;;;;5026123;28;20048;-57
2022/04/05 14:02:41;;;;;;;8.23;4.13;;;;;;;;;;5029510;28;20304;-61
2022/04/05 14:05:09;;;;;;;6.63;3.25;;;;;;;;;;5022278;28;20069;-58
2022/04/05 14:07:38;;;;;;;11.45;4.93;;;;;;;;;;5028291;28;20041;-59
2022/04/05 14:10:05;;;;;;;11.70;4.63;;;;;;;;;;5022441;28;20049;-62
2022/04/05 14:12:32;;;;;;;8.88;4.90;;;;;;;;;;5027316;28;20060;-60
2022/04/05 14:14:58;;;;;;;7.88;4.20;;;;;;;;;;5021959;28;20057;-57
2022/04/05 14:17:25;;;;;;;7.80;4.57;;;;;;;;;;5027960;28;20666;-58
2022/04/05 14:19:52;;;;;;;8.38;4.35;;;;;;;;;;5022454;28;20057;-62
2022/04/05 14:22:21;;;;;;;10.07;4.55;;;;;;;;;;5027648;28;20060;-58
2022/04/05 14:24:47;;;;;;;7.07;4.13;;;;;;;;;;5021305;28;20140;-61
2022/04/05 14:27:14;;;;;;;12.20;4.65;;;;;;;;;;5027259;28;20132;-58
2022/04/05 14:29:40;;;;;;;8.57;4.78;;;;;;;;;;5021543;28;20427;-60
2022/04/05 14:32:08;;;;;;;8.38;4.82;;;;;;;;;;5027492;28;20067;-59
2022/04/05 14:34:34;;;;;;;8.35;3.90;;;;;;;;;;5027065;28;20045;-60
2022/04/05 14:37:01;;;;;;;7.90;4.03;;;;;;;;;;5021879;28;20136;-60
2022/04/05 14:39:29;;;;;;;8.38;4.15;;;;;;;;;;5026157;28;20080;-59
2022/04/05 14:41:56;;;;;;;8.65;3.95;;;;;;;;;;5021186;28;20119;-58
2022/04/05 14:44:23;;;;;;;9.18;4.15;;;;;;;;;;5027073;28;20061;-60
2022/04/05 14:46:51;;;;;;;7.90;3.67;;;;;;;;;;5022361;28;20053;-58